createdAt,value
2019-02-26T00:04:09.984Z,66.39
2019-02-26T00:06:42.450Z,66.40
2019-02-26T00:09:12.530Z,66.51
2019-02-26T00:11:42.744Z,66.49
2019-02-26T00:14:15.535Z,66.62
2019-02-26T00:16:46.673Z,66.59
2019-02-26T00:19:16.771Z,66.93
2019-02-26T00:21:47.951Z,66.70
2019-02-26T00:24:18.926Z,66.53
2019-02-26T00:26:49.136Z,66.77
2019-02-26T00:29:21.033Z,66.64
2019-02-26T00:31:52.922Z,66.76
2019-02-26T00:34:24.027Z,66.55
2019-02-26T00:36:54.355Z,66.60
2019-02-26T00:39:25.107Z,66.63
2019-02-26T00:41:58.133Z,66.45
2019-02-26T00:44:29.877Z,66.78
2019-02-26T00:47:02.705Z,66.56
2019-02-26T00:49:32.311Z,66.80
2019-02-26T00:52:04.048Z,66.78
2019-02-26T00:54:36.433Z,66.80
2019-02-26T00:57:08.599Z,66.88
2019-02-26T00:59:38.871Z,67.05
2019-02-26T01:02:10.327Z,67.43
2019-02-26T01:04:41.488Z,67.61
2019-02-26T01:07:12.514Z,67.45
2019-02-26T01:09:42.724Z,67.20
2019-02-26T01:12:13.711Z,67.43
2019-02-26T01:14:46.385Z,67.51
2019-02-26T01:17:18.645Z,67.57
2019-02-26T01:19:48.682Z,67.82
2019-02-26T01:22:18.950Z,67.92
2019-02-26T01:24:49.777Z,68.05
2019-02-26T01:27:21.100Z,68.53
2019-02-26T01:29:53.470Z,68.45
2019-02-26T01:32:24.914Z,68.72
2019-02-26T01:34:55.178Z,69.00
2019-02-26T01:37:27.691Z,69.03
2019-02-26T01:39:57.379Z,69.15
2019-02-26T01:42:29.426Z,69.19
2019-02-26T01:44:59.542Z,69.34
2019-02-26T01:47:32.107Z,69.17
2019-02-26T01:50:04.082Z,69.22
2019-02-26T01:52:34.223Z,69.50
2019-02-26T01:55:05.946Z,69.74
2019-02-26T01:57:36.199Z,69.59
2019-02-26T02:00:19.407Z,69.34
2019-02-26T02:02:49.682Z,69.48
2019-02-26T02:05:21.592Z,69.20
2019-02-26T02:07:53.547Z,69.40
2019-02-26T02:10:23.665Z,69.15
2019-02-26T02:12:57.345Z,69.31
2019-02-26T02:15:25.842Z,69.26
2019-02-26T02:17:57.706Z,69.19
2019-02-26T02:20:28.019Z,69.42
2019-02-26T02:23:00.473Z,69.67
2019-02-26T02:25:33.209Z,69.56
2019-02-26T02:28:04.417Z,69.46
2019-02-26T02:30:35.416Z,69.33
2019-02-26T02:33:06.140Z,69.35
2019-02-26T02:35:36.338Z,69.28
2019-02-26T02:38:06.755Z,69.43
2019-02-26T02:40:39.881Z,69.48
2019-02-26T02:43:10.024Z,69.51
2019-02-26T02:45:40.814Z,69.60
2019-02-26T02:48:11.769Z,69.75
2019-02-26T02:50:43.046Z,69.71
2019-02-26T02:53:13.360Z,69.64
2019-02-26T02:55:46.402Z,69.60
2019-02-26T02:58:18.180Z,69.42
2019-02-26T03:00:49.313Z,69.75
2019-02-26T03:03:19.489Z,69.92
2019-02-26T03:05:49.706Z,69.93
2019-02-26T03:08:22.323Z,69.98
2019-02-26T03:10:51.884Z,70.02
2019-02-26T03:13:24.879Z,70.31
2019-02-26T03:15:56.188Z,70.32
2019-02-26T03:18:25.852Z,70.30
2019-02-26T03:20:56.717Z,70.35
2019-02-26T03:23:28.028Z,70.64
2019-02-26T03:25:58.224Z,70.73
2019-02-26T03:28:28.545Z,70.67
2019-02-26T03:30:58.767Z,70.88
2019-02-26T03:33:29.872Z,70.55
2019-02-26T03:36:00.095Z,70.75
2019-02-26T03:38:30.456Z,70.50
2019-02-26T03:41:03.310Z,70.71
2019-02-26T03:43:34.192Z,71.06
2019-02-26T03:46:04.538Z,71.31
2019-02-26T03:48:34.717Z,71.37
2019-02-26T03:51:04.935Z,71.66
2019-02-26T03:53:36.322Z,71.60
2019-02-26T03:56:08.025Z,71.88
2019-02-26T03:58:39.070Z,72.23
2019-02-26T04:01:10.935Z,72.24
2019-02-26T04:03:42.521Z,72.57
2019-02-26T04:06:12.861Z,72.91
2019-02-26T04:08:46.166Z,72.97
2019-02-26T04:11:16.822Z,72.96
2019-02-26T04:13:49.482Z,73.18
2019-02-26T04:16:18.918Z,73.63
2019-02-26T04:18:51.978Z,73.41
2019-02-26T04:21:21.314Z,73.40
2019-02-26T04:23:51.567Z,73.48
2019-02-26T04:26:29.133Z,73.16
2019-02-26T04:29:08.750Z,72.98
2019-02-26T04:31:50.248Z,72.88
2019-02-26T04:34:26.550Z,72.99
2019-02-26T04:37:24.799Z,73.39
2019-02-26T04:40:19.229Z,72.92
2019-02-26T04:43:10.336Z,72.62
2019-02-26T04:45:44.107Z,73.07
2019-02-26T04:48:19.519Z,73.18
2019-02-26T04:50:49.438Z,72.92
2019-02-26T04:53:19.668Z,72.79
2019-02-26T04:55:49.949Z,72.52
2019-02-26T04:58:22.258Z,72.61
2019-02-26T05:00:52.137Z,72.36
2019-02-26T05:03:22.352Z,72.66
2019-02-26T05:05:55.941Z,72.63
2019-02-26T05:08:24.554Z,72.67
2019-02-26T05:10:57.287Z,72.86
2019-02-26T05:13:28.926Z,72.89
2019-02-26T05:15:58.692Z,72.85
2019-02-26T05:18:31.631Z,72.48
2019-02-26T05:21:02.752Z,72.55
2019-02-26T05:23:33.660Z,72.98
2019-02-26T05:26:05.609Z,72.60
2019-02-26T05:28:37.887Z,72.44
2019-02-26T05:31:09.077Z,72.78
2019-02-26T05:33:39.590Z,72.34
2019-02-26T05:36:12.125Z,72.45
2019-02-26T05:38:42.538Z,72.08
2019-02-26T05:41:12.918Z,72.25
2019-02-26T05:43:43.171Z,71.75
2019-02-26T05:46:15.673Z,71.76
2019-02-26T05:48:46.190Z,71.50
2019-02-26T05:51:17.290Z,70.86
2019-02-26T05:53:47.500Z,70.46
2019-02-26T05:56:20.192Z,70.56
2019-02-26T05:58:49.703Z,70.87
2019-02-26T06:01:21.827Z,70.67
2019-02-26T06:03:51.990Z,70.10
2019-02-26T06:06:22.289Z,70.55
2019-02-26T06:08:55.246Z,70.50
2019-02-26T06:11:28.313Z,70.46
2019-02-26T06:13:58.432Z,70.71
2019-02-26T06:16:28.953Z,70.77
2019-02-26T06:19:00.252Z,70.21
2019-02-26T06:21:30.489Z,70.07
2019-02-26T06:24:00.611Z,69.93
2019-02-26T06:26:35.095Z,70.69
2019-02-26T06:29:02.780Z,70.99
2019-02-26T06:31:33.050Z,70.81
2019-02-26T06:34:05.645Z,70.44
2019-02-26T06:36:36.132Z,70.31
2019-02-26T06:39:06.375Z,69.74
2019-02-26T06:41:39.506Z,69.66
2019-02-26T06:44:08.686Z,69.99
2019-02-26T06:46:38.960Z,69.57
2019-02-26T06:49:09.192Z,69.21
2019-02-26T06:51:39.487Z,68.34
2019-02-26T06:54:09.683Z,68.86
2019-02-26T06:56:43.728Z,69.45
2019-02-26T06:59:12.335Z,69.62
2019-02-26T07:01:42.739Z,69.47
2019-02-26T07:04:13.082Z,69.54
2019-02-26T07:06:43.419Z,70.20
2019-02-26T07:09:15.799Z,70.11
2019-02-26T07:11:45.661Z,69.41
2019-02-26T07:14:15.882Z,68.79
2019-02-26T07:16:46.158Z,68.25
2019-02-26T07:19:16.743Z,68.28
2019-02-26T07:21:48.132Z,67.75
2019-02-26T07:24:20.685Z,67.40
2019-02-26T07:26:50.715Z,67.95
2019-02-26T07:29:22.396Z,68.55
2019-02-26T07:31:54.101Z,68.94
2019-02-26T07:34:25.071Z,69.64
2019-02-26T07:36:57.258Z,69.62
2019-02-26T07:39:27.379Z,69.34
2019-02-26T07:41:57.659Z,69.66
2019-02-26T07:44:28.451Z,69.32
2019-02-26T07:47:00.629Z,68.57
2019-02-26T07:49:30.447Z,67.99
2019-02-26T07:52:03.141Z,68.63
2019-02-26T07:54:32.411Z,68.91
2019-02-26T07:57:02.823Z,69.11
2019-02-26T07:59:36.484Z,68.82
2019-02-26T08:02:06.349Z,68.61
2019-02-26T08:04:38.768Z,68.36
2019-02-26T08:07:08.789Z,68.21
2019-02-26T08:09:39.029Z,67.79
2019-02-26T08:12:11.268Z,67.81
2019-02-26T08:14:42.863Z,67.42
2019-02-26T08:17:13.123Z,67.89
2019-02-26T08:19:46.371Z,68.25
2019-02-26T08:22:15.093Z,68.85
2019-02-26T08:24:46.081Z,69.06
2019-02-26T08:27:17.079Z,68.81
2019-02-26T08:29:49.283Z,68.66
2019-02-26T08:32:21.005Z,68.00
2019-02-26T08:34:51.026Z,66.73
2019-02-26T08:37:22.253Z,67.05
2019-02-26T08:39:52.457Z,66.70
2019-02-26T08:42:22.721Z,66.76
2019-02-26T08:44:54.192Z,67.81
2019-02-26T08:47:24.639Z,68.64
2019-02-26T08:49:54.778Z,69.40
2019-02-26T08:52:29.312Z,69.09
2019-02-26T08:54:59.302Z,69.77
2019-02-26T08:57:29.557Z,68.90
2019-02-26T08:59:59.758Z,69.26
2019-02-26T09:02:29.906Z,68.30
2019-02-26T09:05:01.565Z,66.79
2019-02-26T09:07:31.907Z,67.10
2019-02-26T09:10:02.065Z,67.03
2019-02-26T09:12:32.202Z,67.17
2019-02-26T09:15:02.519Z,67.43
2019-02-26T09:17:36.921Z,67.35
2019-02-26T09:20:09.763Z,66.08
2019-02-26T09:22:40.599Z,66.59
2019-02-26T09:25:11.870Z,66.35
2019-02-26T09:27:42.930Z,65.70
2019-02-26T09:30:20.221Z,65.61
2019-02-26T09:32:52.421Z,66.24
2019-02-26T09:35:26.918Z,66.69
2019-02-26T09:37:57.888Z,67.04
2019-02-26T09:40:29.067Z,66.92
2019-02-26T09:43:00.139Z,67.04
2019-02-26T09:45:30.453Z,66.39
2019-02-26T09:48:01.258Z,66.42
2019-02-26T09:50:31.597Z,66.49
2019-02-26T09:53:01.871Z,67.10
2019-02-26T09:55:32.179Z,67.96
2019-02-26T09:58:02.669Z,67.87
2019-02-26T10:00:33.016Z,68.12
2019-02-26T10:03:05.270Z,66.99
2019-02-26T10:05:35.525Z,67.40
2019-02-26T10:08:19.778Z,66.67
2019-02-26T10:10:51.844Z,66.95
2019-02-26T10:13:23.271Z,68.07
2019-02-26T10:15:53.746Z,68.96
2019-02-26T10:18:25.643Z,68.03
2019-02-26T10:20:57.554Z,66.96
2019-02-26T10:23:33.022Z,66.53
2019-02-26T10:26:05.202Z,66.21
2019-02-26T10:28:39.343Z,65.90
2019-02-26T10:31:09.630Z,66.77
2019-02-26T10:33:41.185Z,65.70
2019-02-26T10:36:12.953Z,66.39
2019-02-26T10:38:43.831Z,66.18
2019-02-26T10:41:14.781Z,66.69
2019-02-26T10:43:45.170Z,66.63
2019-02-26T10:46:16.901Z,67.65
2019-02-26T10:48:48.073Z,68.21
2019-02-26T10:51:26.112Z,70.30
2019-02-26T10:53:51.849Z,70.59
2019-02-26T10:56:28.017Z,72.57
2019-02-26T10:59:03.565Z,73.50
2019-02-26T11:01:33.508Z,74.76
2019-02-26T11:04:08.355Z,74.11
2019-02-26T11:06:41.594Z,75.04
2019-02-26T11:09:11.114Z,75.65
2019-02-26T11:11:42.359Z,76.08
2019-02-26T11:14:15.981Z,77.95
2019-02-26T11:16:47.231Z,78.21
2019-02-26T11:19:17.535Z,77.67
2019-02-26T11:21:50.078Z,78.43
2019-02-26T11:24:23.441Z,78.84
2019-02-26T11:26:51.947Z,78.49
2019-02-26T11:29:22.288Z,79.51
2019-02-26T11:31:52.575Z,80.19
2019-02-26T11:34:25.471Z,79.63
2019-02-26T11:36:57.950Z,79.18
2019-02-26T11:39:28.266Z,79.03
2019-02-26T11:42:00.727Z,79.87
2019-02-26T11:44:30.514Z,79.40
2019-02-26T11:47:00.714Z,80.18
2019-02-26T11:49:31.324Z,80.81
2019-02-26T11:52:04.402Z,79.90
2019-02-26T11:54:35.083Z,80.97
2019-02-26T11:57:11.215Z,81.40
2019-02-26T11:59:42.791Z,82.11
2019-02-26T12:02:14.240Z,81.49
2019-02-26T12:04:44.415Z,82.48
2019-02-26T12:07:14.609Z,81.47
2019-02-26T12:09:44.909Z,82.47
2019-02-26T12:12:15.141Z,82.84
2019-02-26T12:14:48.298Z,82.60
2019-02-26T12:17:17.611Z,80.98
2019-02-26T12:19:48.641Z,82.10
2019-02-26T12:22:20.421Z,81.92
2019-02-26T12:24:55.768Z,83.93
2019-02-26T12:27:23.776Z,82.40
2019-02-26T12:29:59.550Z,83.52
2019-02-26T12:32:29.910Z,84.03
2019-02-26T12:35:00.290Z,83.10
2019-02-26T12:37:30.616Z,83.25
2019-02-26T12:40:02.069Z,83.33
2019-02-26T12:42:32.283Z,83.94
2019-02-26T12:45:04.861Z,83.61
2019-02-26T12:47:39.804Z,84.08
2019-02-26T12:50:12.357Z,83.89
2019-02-26T12:52:47.484Z,83.93
2019-02-26T12:55:17.756Z,83.81
2019-02-26T12:57:49.780Z,83.13
2019-02-26T13:00:23.602Z,82.65
2019-02-26T13:02:53.871Z,83.26
2019-02-26T13:05:24.172Z,84.16
2019-02-26T13:07:55.368Z,83.67
2019-02-26T13:10:26.537Z,84.23
2019-02-26T13:13:00.127Z,83.86
2019-02-26T13:15:30.250Z,83.73
2019-02-26T13:18:01.457Z,83.62
2019-02-26T13:20:34.416Z,83.11
2019-02-26T13:23:16.963Z,83.26
2019-02-26T13:25:37.306Z,82.68
2019-02-26T13:28:07.597Z,82.55
2019-02-26T13:30:37.944Z,83.11
2019-02-26T13:33:12.875Z,82.70
2019-02-26T13:35:42.834Z,82.42
2019-02-26T13:38:13.619Z,83.22
2019-02-26T13:40:45.495Z,82.52
2019-02-26T13:43:15.727Z,82.51
2019-02-26T13:45:47.710Z,82.74
2019-02-26T13:48:17.966Z,83.08
2019-02-26T13:50:50.656Z,82.74
2019-02-26T13:53:20.920Z,82.89
2019-02-26T13:55:53.139Z,82.64
2019-02-26T13:58:23.403Z,82.21
2019-02-26T14:00:57.333Z,82.70
2019-02-26T14:03:36.947Z,82.07
2019-02-26T14:06:13.998Z,82.38
2019-02-26T14:08:44.325Z,82.38
2019-02-26T14:11:14.824Z,82.06
2019-02-26T14:13:45.183Z,82.03
2019-02-26T14:16:18.732Z,82.07
2019-02-26T14:18:49.087Z,82.53
2019-02-26T14:21:19.596Z,81.97
2019-02-26T14:23:50.207Z,82.75
2019-02-26T14:26:21.083Z,82.56
2019-02-26T14:28:52.893Z,82.67
2019-02-26T14:31:23.732Z,82.82
2019-02-26T14:33:55.859Z,83.79
2019-02-26T14:36:31.527Z,83.29
2019-02-26T14:39:03.820Z,82.43
2019-02-26T14:41:35.601Z,82.65
2019-02-26T14:44:12.448Z,83.41
2019-02-26T14:47:09.349Z,82.79
2019-02-26T14:49:53.759Z,83.10
2019-02-26T14:52:33.551Z,82.74
2019-02-26T14:55:11.121Z,83.53
2019-02-26T14:58:02.520Z,83.34
2019-02-26T15:00:45.357Z,83.16
2019-02-26T15:03:33.906Z,83.11
2019-02-26T15:06:23.489Z,82.99
2019-02-26T15:11:53.506Z,83.24
2019-02-26T15:14:23.952Z,82.54
2019-02-26T15:16:54.263Z,82.75
2019-02-26T15:19:25.013Z,82.53
2019-02-26T15:21:57.216Z,82.43
2019-02-26T15:24:27.727Z,82.58
2019-02-26T15:27:16.301Z,82.69
2019-02-26T15:29:50.550Z,82.67
2019-02-26T15:32:20.828Z,82.65
2019-02-26T15:34:51.093Z,83.75
2019-02-26T15:37:21.348Z,83.00
2019-02-26T15:39:51.615Z,83.21
2019-02-26T15:42:22.880Z,83.64
2019-02-26T15:44:53.126Z,83.63
2019-02-26T15:47:23.576Z,83.27
2019-02-26T15:49:53.787Z,83.20
2019-02-26T15:52:24.053Z,82.55
2019-02-26T15:54:57.646Z,83.04
2019-02-26T15:57:28.570Z,83.12
2019-02-26T16:00:00.407Z,82.97
2019-02-26T16:02:30.908Z,83.05
2019-02-26T16:05:02.809Z,82.67
2019-02-26T16:07:33.279Z,82.77
2019-02-26T16:10:16.413Z,83.38
2019-02-26T16:15:38.585Z,82.99
2019-02-26T16:18:18.040Z,82.77
2019-02-26T16:20:55.835Z,82.76
2019-02-26T16:23:37.765Z,83.01
2019-02-26T16:26:09.861Z,82.97
2019-02-26T16:28:40.150Z,82.64
2019-02-26T16:31:10.411Z,83.17
2019-02-26T16:33:40.713Z,83.30
2019-02-26T16:36:12.963Z,82.97
2019-02-26T16:38:42.968Z,82.88
2019-02-26T16:41:13.374Z,82.99
2019-02-26T16:43:43.940Z,82.83
2019-02-26T16:46:14.493Z,83.08
2019-02-26T16:48:45.374Z,82.31
2019-02-26T16:51:18.551Z,82.53
2019-02-26T16:53:47.647Z,83.14
2019-02-26T16:56:21.634Z,82.99
2019-02-26T16:58:49.807Z,83.00
2019-02-26T17:01:21.749Z,83.10
2019-02-26T17:03:52.020Z,82.87
2019-02-26T17:06:22.244Z,82.56
2019-02-26T17:08:52.503Z,83.24
2019-02-26T17:11:22.861Z,83.47
2019-02-26T17:13:53.050Z,83.65
2019-02-26T17:16:23.248Z,83.64
2019-02-26T17:18:53.482Z,83.77
2019-02-26T17:21:23.728Z,83.95
2019-02-26T17:23:54.014Z,83.62
2019-02-26T17:26:24.225Z,83.61
2019-02-26T17:28:54.499Z,83.12
2019-02-26T17:31:24.693Z,83.53
2019-02-26T17:33:54.925Z,83.59
2019-02-26T17:36:25.147Z,83.55
2019-02-26T17:38:55.372Z,83.36
2019-02-26T17:41:25.553Z,83.36
2019-02-26T17:43:58.770Z,83.74
2019-02-26T17:46:28.680Z,83.56
2019-02-26T17:49:02.642Z,83.48
2019-02-26T17:51:31.284Z,83.35
2019-02-26T17:54:01.971Z,83.65
2019-02-26T17:56:33.499Z,83.50
2019-02-26T17:59:03.822Z,83.48
2019-02-26T18:01:34.032Z,83.64
2019-02-26T18:04:04.296Z,83.89
2019-02-26T18:06:34.497Z,83.73
2019-02-26T18:09:05.236Z,83.81
2019-02-26T18:11:36.563Z,83.90
2019-02-26T18:14:06.928Z,83.78
2019-02-26T18:16:37.141Z,83.90
2019-02-26T18:19:09.744Z,83.75
2019-02-26T18:21:43.399Z,84.21
2019-02-26T18:24:11.260Z,83.37
2019-02-26T18:26:41.491Z,84.06
2019-02-26T18:29:11.733Z,84.17
2019-02-26T18:31:41.934Z,84.05
2019-02-26T18:34:14.037Z,84.11
2019-02-26T18:36:45.475Z,83.32
2019-02-26T18:39:16.144Z,83.54
2019-02-26T18:41:50.710Z,83.32
2019-02-26T18:44:20.527Z,83.20
2019-02-26T18:46:51.120Z,83.13
2019-02-26T18:49:22.399Z,83.39
2019-02-26T18:51:52.644Z,82.77
2019-02-26T18:54:22.887Z,82.92
2019-02-26T18:56:53.937Z,82.73
2019-02-26T18:59:24.263Z,82.88
2019-02-26T19:01:54.534Z,82.82
2019-02-26T19:04:24.808Z,83.03
2019-02-26T19:06:55.015Z,82.85
2019-02-26T19:09:25.316Z,82.81
2019-02-26T19:11:57.715Z,82.93
2019-02-26T19:14:27.387Z,82.64
2019-02-26T19:16:57.603Z,83.05
2019-02-26T19:19:27.750Z,82.48
2019-02-26T19:21:58.999Z,82.62
2019-02-26T19:24:29.395Z,82.95
2019-02-26T19:26:59.601Z,82.58
2019-02-26T19:29:31.548Z,82.90
2019-02-26T19:32:01.786Z,82.64
2019-02-26T19:34:32.029Z,82.81
2019-02-26T19:37:02.239Z,82.59
2019-02-26T19:39:33.751Z,82.28
2019-02-26T19:42:04.487Z,82.58
2019-02-26T19:44:36.447Z,82.35
2019-02-26T19:47:06.808Z,82.47
2019-02-26T19:49:39.686Z,81.87
2019-02-26T19:52:09.381Z,82.33
2019-02-26T19:54:41.571Z,82.95
2019-02-26T19:57:12.322Z,83.49
2019-02-26T19:59:46.784Z,83.04
2019-02-26T20:02:14.724Z,82.61
2019-02-26T20:04:44.991Z,82.57
2019-02-26T20:07:15.193Z,82.60
2019-02-26T20:09:45.364Z,82.41
2019-02-26T20:12:15.592Z,81.81
2019-02-26T20:14:48.551Z,81.77
2019-02-26T20:17:17.720Z,81.62
2019-02-26T20:19:48.038Z,82.24
2019-02-26T20:22:18.448Z,81.73
2019-02-26T20:24:48.719Z,81.27
2019-02-26T20:27:21.647Z,81.02
2019-02-26T20:29:50.887Z,81.48
2019-02-26T20:32:21.069Z,81.72
2019-02-26T20:34:51.328Z,81.67
2019-02-26T20:37:22.003Z,81.71
2019-02-26T20:39:53.415Z,82.01
2019-02-26T20:42:23.610Z,81.68
2019-02-26T20:44:58.990Z,81.52
2019-02-26T20:47:31.535Z,81.53
2019-02-26T20:50:01.047Z,81.96
2019-02-26T20:52:32.952Z,81.72
2019-02-26T20:55:03.020Z,81.70
2019-02-26T20:57:34.905Z,80.88
2019-02-26T21:00:08.207Z,81.07
2019-02-26T21:02:38.394Z,81.17
2019-02-26T21:05:09.641Z,81.08
2019-02-26T21:07:39.774Z,81.04
2019-02-26T21:10:15.031Z,80.90
2019-02-26T21:12:43.855Z,81.31
2019-02-26T21:15:24.803Z,81.08
2019-02-26T21:17:57.738Z,81.10
2019-02-26T21:20:26.632Z,81.36
2019-02-26T21:22:56.810Z,81.78
2019-02-26T21:25:26.985Z,81.50
2019-02-26T21:28:00.785Z,81.77
2019-02-26T21:30:28.975Z,81.36
2019-02-26T21:32:59.183Z,80.91
2019-02-26T21:35:29.439Z,81.24
2019-02-26T21:37:59.636Z,81.05
2019-02-26T21:40:29.767Z,81.15
2019-02-26T21:43:02.407Z,81.26
2019-02-26T21:45:32.566Z,81.47
2019-02-26T21:48:03.316Z,81.00
2019-02-26T21:50:33.779Z,81.32
2019-02-26T21:53:03.963Z,81.09
2019-02-26T21:55:43.978Z,81.22
2019-02-26T21:58:05.894Z,80.84
2019-02-26T22:00:36.745Z,80.24
2019-02-26T22:03:07.832Z,80.68
2019-02-26T22:05:38.435Z,80.61
2019-02-26T22:08:08.563Z,80.89
2019-02-26T22:10:40.224Z,80.82
2019-02-26T22:13:10.540Z,81.45
2019-02-26T22:15:42.040Z,81.94
2019-02-26T22:18:12.470Z,82.28
2019-02-26T22:20:42.632Z,81.91
2019-02-26T22:23:14.833Z,82.38
2019-02-26T22:25:44.557Z,82.00
2019-02-26T22:28:14.658Z,81.92
2019-02-26T22:30:44.822Z,82.11
2019-02-26T22:33:14.933Z,82.20
2019-02-26T22:35:45.080Z,82.07
2019-02-26T22:38:16.006Z,82.16
2019-02-26T22:40:46.199Z,82.11
2019-02-26T22:43:16.290Z,82.41
2019-02-26T22:45:47.511Z,82.30
2019-02-26T22:48:17.805Z,82.53
2019-02-26T22:50:48.247Z,82.54
2019-02-26T22:53:18.533Z,82.45
2019-02-26T22:55:49.815Z,82.49
2019-02-26T22:58:20.652Z,82.22
2019-02-26T23:00:58.439Z,82.08
2019-02-26T23:03:29.467Z,82.75
2019-02-26T23:05:59.818Z,82.32
2019-02-26T23:08:30.212Z,83.06
2019-02-26T23:11:00.680Z,83.07
2019-02-26T23:13:31.890Z,83.10
2019-02-26T23:16:03.047Z,83.06
2019-02-26T23:18:33.335Z,83.11
2019-02-26T23:21:03.701Z,83.49
2019-02-26T23:23:34.243Z,83.80
2019-02-26T23:26:08.630Z,83.57
2019-02-26T23:28:37.078Z,84.16
2019-02-26T23:31:07.925Z,84.02
2019-02-26T23:33:40.780Z,84.07
2019-02-26T23:36:10.870Z,84.08
2019-02-26T23:38:43.813Z,84.71
2019-02-26T23:41:13.212Z,84.40
2019-02-26T23:43:45.390Z,84.73
2019-02-26T23:46:21.401Z,84.25
2019-02-26T23:48:51.689Z,83.99
2019-02-26T23:51:22.134Z,83.79
2019-02-26T23:53:52.445Z,84.13
2019-02-26T23:56:22.802Z,84.54
2019-02-26T23:58:53.098Z,84.15
